• Join FlightAware (Why Join?)
  • Login
  • US Flag 
10:59PM EDT


 

Airport Tracker/Info


-or-


 

Live Flight TrackerFlight Track Log ✈ N777NC ✈ 10-Jul-2013 ✈ KPIT - KATL

Flight Track Log - Related Links

Times and Time Zones

All times are in EDT time to prevent confusion due to time zone crossing. See the N777NC flight status page for this flight to view local times or setup timezone preferences in your user account.

Time Position Orientation Groundspeed Altitude Reporting Facility
EDT Latitude Longitude Course Direction KTS MPH feet Rate Location/Type
10:17AM 40.3919 -80.2969 201° Southwest 237 273 4,800  Level Cleveland Center
10:19AM 40.2525 -80.3656 201° Southwest 254 292 8,400 1,800 Climbing Cleveland Center
10:20AM 40.1753 -80.3794 188° South 284 327 10,200 1,860 Climbing Cleveland Center
10:21AM 40.0919 -80.3986 190° South 302 348 12,200 1,740 Climbing Cleveland Center
10:22AM 40.0044 -80.4231 192° South 317 365 13,700 1,200 Climbing Cleveland Center
10:23AM 39.9128 -80.4694 201° Southwest 330 380 14,700 1,080 Climbing Cleveland Center
10:24AM 39.8169 -80.5264 205° Southwest 359 413 15,900 1,440 Climbing Cleveland Center
10:25AM 39.7233 -80.5939 209° Southwest 380 437 17,600 1,680 Climbing Cleveland Center
10:26AM 39.6111 -80.6769 210° Southwest 384 442 19,500 1,380 Climbing Indianapolis Center
10:27AM 39.5161 -80.7469 210° Southwest 390 449 20,600 1,020 Climbing Indianapolis Center
10:29AM 39.3267 -80.9003 212° Southwest 401 461 22,800 1,020 Climbing Indianapolis Center
10:30AM 39.2331 -80.9878 216° Southwest 412 474 23,900 960 Climbing Indianapolis Center
10:31AM 39.1206 -81.0931 216° Southwest 415 478 24,900 840 Climbing Indianapolis Center
10:32AM 39.0261 -81.1828 216° Southwest 421 484 25,700 720 Climbing Indianapolis Center
10:33AM 38.9306 -81.2742 217° Southwest 426 490 26,500 660 Climbing Indianapolis Center
10:35AM 38.8328 -81.3661 216° Southwest 433 498 27,100 660 Climbing Indianapolis Center
10:36AM 38.7167 -81.4697 215° Southwest 441 507 27,900 420 Climbing Indianapolis Center
10:37AM 38.6142 -81.5622 215° Southwest 449 517 28,000 420 Climbing Indianapolis Center
10:38AM 38.5083 -81.6408 210° Southwest 462 532 28,800 900 Climbing Indianapolis Center
10:39AM 38.3986 -81.7214 210° Southwest 455 524 29,900 960 Climbing Indianapolis Center
10:40AM 38.2908 -81.7989 209° Southwest 447 514 30,800 840 Climbing Indianapolis Center
10:41AM 38.1483 -81.8533 197° South 447 514 31,700 540 Climbing Indianapolis Center
10:42AM 38.0314 -81.9047 199° South 444 511 32,000 120 Climbing Indianapolis Center
10:43AM 37.9122 -81.9583 200° South 452 520 32,000  Level Indianapolis Center
10:45AM 37.6894 -82.0722 202° Southwest 476 548 32,000  Level Atlanta Center
10:46AM 37.5697 -82.1356 203° Southwest 488 562 32,000  Level Atlanta Center
10:47AM 37.4497 -82.1933 201° Southwest 481 554 32,000  Level Atlanta Center
10:48AM 37.3297 -82.2483 200° South 469 540 32,000  Level Atlanta Center
10:49AM 37.2053 -82.2981 198° South 464 534 32,000  Level Atlanta Center
10:50AM 37.0811 -82.3556 200° South 464 534 32,000  Level Atlanta Center
10:51AM 36.9589 -82.4128 201° Southwest 469 540 32,000  Level Atlanta Center
10:52AM 36.8242 -82.4750 200° South 469 540 32,000 240 Level Atlanta Center
10:53AM 36.7019 -82.5369 202° Southwest 469 540 32,500 780 Climbing Atlanta Center
10:54AM 36.5836 -82.5961 202° Southwest 469 540 33,600 720 Climbing Atlanta Center
10:55AM 36.4697 -82.6525 202° Southwest 453 521 34,000 180 Climbing Atlanta Center
10:56AM 36.3533 -82.7008 198° South 448 516 34,000  Level Atlanta Center
10:57AM 36.2331 -82.7492 198° South 443 510 34,000  Level Atlanta Center
10:58AM 36.1103 -82.7897 195° South 443 510 34,000  Level Atlanta Center
10:59AM 35.9856 -82.8275 194° South 454 522 34,000  Level Atlanta Center
11:00AM 35.8650 -82.8625 193° South 454 522 34,000  Level Atlanta Center
11:01AM 35.7400 -82.9028 195° South 454 522 34,000  Level Atlanta Center
11:02AM 35.6153 -82.9403 194° South 454 522 34,000  Level Atlanta Center
11:03AM 35.4883 -82.9803 194° South 459 528 34,000  Level Atlanta Center
11:04AM 35.3656 -83.0200 195° South 459 528 34,000 -120 Level Atlanta Center
11:05AM 35.2408 -83.0647 196° South 464 534 33,800 -420 Descending Atlanta Center
11:06AM 35.1161 -83.1169 199° South 469 540 33,200 -780 Descending Atlanta Center
11:07AM 34.9892 -83.1742 200° South 482 555 32,300 -960 Descending Atlanta Center
11:08AM 34.8747 -83.2236 200° South 482 555 31,300 -1,140 Descending Atlanta Center
11:09AM 34.7375 -83.2881 201° Southwest 487 560 30,100 -1,620 Descending Atlanta Center
11:10AM 34.6292 -83.3547 207° Southwest 487 560 28,100 -2,880 Descending Atlanta Center
11:11AM 34.5089 -83.4589 216° Southwest 487 560 24,400 -3,540 Descending Atlanta Center
11:12AM 34.4133 -83.5603 221° Southwest 481 554 21,100 -3,240 Descending Atlanta Center
11:13AM 34.3175 -83.6614 221° Southwest 465 535 18,000 -3,180 Descending Atlanta Center
11:14AM 34.2281 -83.7525 220° Southwest 442 509 14,800 -2,880 Descending Atlanta Center
11:15AM 34.1364 -83.8331 216° Southwest 424 488 12,300 -1,500 Descending Atlanta Center
11:16AM 34.0614 -83.9008 217° Southwest 374 430 11,800 -1,320 Descending Atlanta Center
11:17AM 33.9967 -83.9661 220° Southwest 321 369 9,700 -1,380 Descending Atlanta Center
11:18AM 33.9133 -83.9711 183° South 288 331 9,100 -360 Descending Atlanta Center
11:19AM 33.8381 -83.9714 180° South 301 346 9,000 -540 Descending Atlanta Center
11:20AM 33.7567 -83.9589 173° South 301 346 8,100 -900 Descending Atlanta Center
11:21AM 33.6814 -83.9339 165° South 287 330 7,200 -600 Descending Atlanta Center
11:22AM 33.6356 -83.9789 219° Southwest 197 227 7,000 -540 Descending Atlanta Center
11:24AM 33.6333 -84.1167 269° West 201 231 5,700 -780 Descending Atlanta TRACON
11:25AM 33.6333 -84.1833 270° West 188 216 4,700 -960 Descending Atlanta TRACON
11:26AM 33.6333 -84.2333 270° West 184 212 3,800 -960 Descending Atlanta TRACON
11:27AM 33.6333 -84.3000 270° West 196 226 2,800 -960 Descending Atlanta TRACON
11:28AM 33.6333 -84.3667 270° West 178 205 1,900 -900 Descending Atlanta TRACON
11:30AM 33.6333 -84.4167 220° Southwest  Level FlightAware Approximate
11:37AM 33.6367 -84.4279 220° Southwest  Level Estimated